sensor_id;sensor_type;location;lat;lon;timestamp;temperature;humidity
1381;DHT22;684;48.342;10.096;2024-01-06T00:01:49;7.50;29.30
1381;DHT22;684;48.342;10.096;2024-01-06T00:04:17;7.50;29.30
1381;DHT22;684;48.342;10.096;2024-01-06T00:06:44;7.50;29.40
1381;DHT22;684;48.342;10.096;2024-01-06T00:09:11;7.50;29.40
1381;DHT22;684;48.342;10.096;2024-01-06T00:11:38;7.50;29.40
1381;DHT22;684;48.342;10.096;2024-01-06T00:14:05;7.60;29.20
1381;DHT22;684;48.342;10.096;2024-01-06T00:16:32;7.60;29.20
1381;DHT22;684;48.342;10.096;2024-01-06T00:18:59;7.60;29.10
1381;DHT22;684;48.342;10.096;2024-01-06T00:21:27;7.60;29.00
1381;DHT22;684;48.342;10.096;2024-01-06T00:23:54;7.60;29.10
1381;DHT22;684;48.342;10.096;2024-01-06T00:26:22;7.60;28.90
1381;DHT22;684;48.342;10.096;2024-01-06T00:28:49;7.60;28.80
1381;DHT22;684;48.342;10.096;2024-01-06T00:31:15;7.60;28.90
1381;DHT22;684;48.342;10.096;2024-01-06T00:33:43;7.60;28.80
1381;DHT22;684;48.342;10.096;2024-01-06T00:36:10;7.70;28.80
1381;DHT22;684;48.342;10.096;2024-01-06T00:38:38;7.70;28.80
1381;DHT22;684;48.342;10.096;2024-01-06T00:41:04;7.60;28.70
1381;DHT22;684;48.342;10.096;2024-01-06T00:43:31;7.70;28.70
1381;DHT22;684;48.342;10.096;2024-01-06T00:45:58;7.70;28.60
1381;DHT22;684;48.342;10.096;2024-01-06T00:48:24;7.70;28.70
1381;DHT22;684;48.342;10.096;2024-01-06T00:50:51;7.70;28.50
1381;DHT22;684;48.342;10.096;2024-01-06T00:53:18;7.70;28.40
1381;DHT22;684;48.342;10.096;2024-01-06T00:55:46;7.70;28.50
1381;DHT22;684;48.342;10.096;2024-01-06T00:58:13;7.70;28.50
1381;DHT22;684;48.342;10.096;2024-01-06T01:00:39;7.70;28.50
1381;DHT22;684;48.342;10.096;2024-01-06T01:03:06;7.70;28.40
1381;DHT22;684;48.342;10.096;2024-01-06T01:05:33;7.70;28.40
1381;DHT22;684;48.342;10.096;2024-01-06T01:07:59;7.70;28.20
1381;DHT22;684;48.342;10.096;2024-01-06T01:10:26;7.60;28.10
1381;DHT22;684;48.342;10.096;2024-01-06T01:12:54;7.60;28.00
1381;DHT22;684;48.342;10.096;2024-01-06T01:15:21;7.60;27.80
1381;DHT22;684;48.342;10.096;2024-01-06T01:17:48;7.70;27.40
1381;DHT22;684;48.342;10.096;2024-01-06T01:20:15;7.60;27.60
1381;DHT22;684;48.342;10.096;2024-01-06T01:22:41;7.50;27.70
1381;DHT22;684;48.342;10.096;2024-01-06T01:25:08;7.50;27.10
1381;DHT22;684;48.342;10.096;2024-01-06T01:27:35;7.50;27.00
1381;DHT22;684;48.342;10.096;2024-01-06T01:30:03;7.50;26.40
1381;DHT22;684;48.342;10.096;2024-01-06T01:32:31;7.50;25.40
1381;DHT22;684;48.342;10.096;2024-01-06T01:34:57;7.40;25.90
1381;DHT22;684;48.342;10.096;2024-01-06T01:37:24;7.40;25.90
1381;DHT22;684;48.342;10.096;2024-01-06T01:39:51;7.30;26.10
1381;DHT22;684;48.342;10.096;2024-01-06T01:42:17;7.40;25.60
1381;DHT22;684;48.342;10.096;2024-01-06T01:44:44;7.30;25.70
1381;DHT22;684;48.342;10.096;2024-01-06T01:47:12;7.30;25.70
1381;DHT22;684;48.342;10.096;2024-01-06T01:49:44;7.20;25.80
1381;DHT22;684;48.342;10.096;2024-01-06T01:52:11;7.20;25.80
1381;DHT22;684;48.342;10.096;2024-01-06T01:54:38;7.20;25.70
1381;DHT22;684;48.342;10.096;2024-01-06T01:57:05;7.20;25.80
1381;DHT22;684;48.342;10.096;2024-01-06T01:59:32;7.20;25.90
1381;DHT22;684;48.342;10.096;2024-01-06T02:01:59;7.20;26.00
1381;DHT22;684;48.342;10.096;2024-01-06T02:04:27;7.10;26.10
1381;DHT22;684;48.342;10.096;2024-01-06T02:06:54;7.10;26.10
1381;DHT22;684;48.342;10.096;2024-01-06T02:09:21;7.20;26.00
1381;DHT22;684;48.342;10.096;2024-01-06T02:11:52;7.10;26.10
1381;DHT22;684;48.342;10.096;2024-01-06T02:14:19;7.10;26.10
1381;DHT22;684;48.342;10.096;2024-01-06T02:16:45;7.10;26.30
1381;DHT22;684;48.342;10.096;2024-01-06T02:19:13;7.10;26.30
1381;DHT22;684;48.342;10.096;2024-01-06T02:21:44;7.10;26.10
1381;DHT22;684;48.342;10.096;2024-01-06T02:24:12;7.10;26.10
1381;DHT22;684;48.342;10.096;2024-01-06T02:26:38;7.10;26.10
1381;DHT22;684;48.342;10.096;2024-01-06T02:29:05;7.10;25.90
1381;DHT22;684;48.342;10.096;2024-01-06T02:31:32;7.10;25.80
1381;DHT22;684;48.342;10.096;2024-01-06T02:33:58;7.00;25.80
1381;DHT22;684;48.342;10.096;2024-01-06T02:36:25;7.00;25.70
1381;DHT22;684;48.342;10.096;2024-01-06T02:38:52;7.00;25.90
1381;DHT22;684;48.342;10.096;2024-01-06T02:41:20;7.00;26.00
1381;DHT22;684;48.342;10.096;2024-01-06T02:43:47;7.00;26.00
1381;DHT22;684;48.342;10.096;2024-01-06T02:46:13;7.00;26.00
1381;DHT22;684;48.342;10.096;2024-01-06T02:48:40;7.00;26.10
1381;DHT22;684;48.342;10.096;2024-01-06T02:51:07;6.90;26.20
1381;DHT22;684;48.342;10.096;2024-01-06T02:53:33;6.90;26.20
1381;DHT22;684;48.342;10.096;2024-01-06T02:56:00;6.90;26.10
1381;DHT22;684;48.342;10.096;2024-01-06T02:58:28;6.90;26.20
1381;DHT22;684;48.342;10.096;2024-01-06T03:00:55;6.90;26.20
1381;DHT22;684;48.342;10.096;2024-01-06T03:03:21;6.90;26.00
1381;DHT22;684;48.342;10.096;2024-01-06T03:05:48;7.00;26.10
1381;DHT22;684;48.342;10.096;2024-01-06T03:08:15;6.90;26.10
1381;DHT22;684;48.342;10.096;2024-01-06T03:10:42;6.90;26.10
1381;DHT22;684;48.342;10.096;2024-01-06T03:13:09;6.90;26.10
1381;DHT22;684;48.342;10.096;2024-01-06T03:15:37;6.90;26.10
1381;DHT22;684;48.342;10.096;2024-01-06T03:18:04;6.90;26.10
1381;DHT22;684;48.342;10.096;2024-01-06T03:20:31;6.90;26.00
1381;DHT22;684;48.342;10.096;2024-01-06T03:22:57;7.00;25.50
1381;DHT22;684;48.342;10.096;2024-01-06T03:25:24;7.00;25.60
1381;DHT22;684;48.342;10.096;2024-01-06T03:27:51;6.90;25.60
1381;DHT22;684;48.342;10.096;2024-01-06T03:30:17;6.90;25.70
1381;DHT22;684;48.342;10.096;2024-01-06T03:32:45;6.90;25.70
1381;DHT22;684;48.342;10.096;2024-01-06T03:35:12;6.80;25.70
1381;DHT22;684;48.342;10.096;2024-01-06T03:37:39;6.80;25.60
1381;DHT22;684;48.342;10.096;2024-01-06T03:40:07;6.80;25.60
1381;DHT22;684;48.342;10.096;2024-01-06T03:42:34;6.80;25.70
1381;DHT22;684;48.342;10.096;2024-01-06T03:45:02;6.80;25.70
1381;DHT22;684;48.342;10.096;2024-01-06T03:47:29;6.80;25.80
1381;DHT22;684;48.342;10.096;2024-01-06T03:49:57;6.70;25.80
1381;DHT22;684;48.342;10.096;2024-01-06T03:52:24;6.70;26.00
1381;DHT22;684;48.342;10.096;2024-01-06T03:54:50;6.70;26.10
1381;DHT22;684;48.342;10.096;2024-01-06T03:57:17;6.70;26.00
1381;DHT22;684;48.342;10.096;2024-01-06T03:59:44;6.70;26.10
1381;DHT22;684;48.342;10.096;2024-01-06T04:02:10;6.80;26.10
1381;DHT22;684;48.342;10.096;2024-01-06T04:04:37;6.80;25.90
1381;DHT22;684;48.342;10.096;2024-01-06T04:07:05;6.80;25.90
1381;DHT22;684;48.342;10.096;2024-01-06T04:09:32;6.80;25.80
1381;DHT22;684;48.342;10.096;2024-01-06T04:11:59;6.70;25.80
1381;DHT22;684;48.342;10.096;2024-01-06T04:14:26;6.70;25.70
1381;DHT22;684;48.342;10.096;2024-01-06T04:16:53;6.70;25.70
1381;DHT22;684;48.342;10.096;2024-01-06T04:19:21;6.70;25.80
1381;DHT22;684;48.342;10.096;2024-01-06T04:21:47;6.70;25.90
1381;DHT22;684;48.342;10.096;2024-01-06T04:24:15;6.70;25.90
1381;DHT22;684;48.342;10.096;2024-01-06T04:26:42;6.70;25.70
1381;DHT22;684;48.342;10.096;2024-01-06T04:29:10;6.70;25.60
1381;DHT22;684;48.342;10.096;2024-01-06T04:31:37;6.70;25.70
1381;DHT22;684;48.342;10.096;2024-01-06T04:34:04;6.70;25.60
1381;DHT22;684;48.342;10.096;2024-01-06T04:36:30;6.70;25.70
1381;DHT22;684;48.342;10.096;2024-01-06T04:38:57;6.70;25.70
1381;DHT22;684;48.342;10.096;2024-01-06T04:41:25;6.60;25.60
1381;DHT22;684;48.342;10.096;2024-01-06T04:43:52;6.60;25.70
1381;DHT22;684;48.342;10.096;2024-01-06T04:46:18;6.60;25.70
1381;DHT22;684;48.342;10.096;2024-01-06T04:48:46;6.60;25.70
1381;DHT22;684;48.342;10.096;2024-01-06T04:51:13;6.60;25.70
1381;DHT22;684;48.342;10.096;2024-01-06T04:53:40;6.60;25.70
1381;DHT22;684;48.342;10.096;2024-01-06T04:56:07;6.60;25.70
1381;DHT22;684;48.342;10.096;2024-01-06T04:58:35;6.50;25.80
1381;DHT22;684;48.342;10.096;2024-01-06T05:01:02;6.50;25.90
1381;DHT22;684;48.342;10.096;2024-01-06T05:03:28;6.50;25.90
1381;DHT22;684;48.342;10.096;2024-01-06T05:05:55;6.60;25.80
1381;DHT22;684;48.342;10.096;2024-01-06T05:08:22;6.50;25.90
1381;DHT22;684;48.342;10.096;2024-01-06T05:10:51;6.50;26.00
1381;DHT22;684;48.342;10.096;2024-01-06T05:13:18;6.50;26.00
1381;DHT22;684;48.342;10.096;2024-01-06T05:15:46;6.50;26.10
1381;DHT22;684;48.342;10.096;2024-01-06T05:18:13;6.50;26.10
1381;DHT22;684;48.342;10.096;2024-01-06T05:20:40;6.50;26.00
1381;DHT22;684;48.342;10.096;2024-01-06T05:23:07;6.50;26.00
1381;DHT22;684;48.342;10.096;2024-01-06T05:25:34;6.60;25.80
1381;DHT22;684;48.342;10.096;2024-01-06T05:28:00;6.60;25.80
1381;DHT22;684;48.342;10.096;2024-01-06T05:30:27;6.60;25.90
1381;DHT22;684;48.342;10.096;2024-01-06T05:32:55;6.60;25.90
1381;DHT22;684;48.342;10.096;2024-01-06T05:35:22;6.50;26.00
1381;DHT22;684;48.342;10.096;2024-01-06T05:37:49;6.50;26.10
1381;DHT22;684;48.342;10.096;2024-01-06T05:40:16;6.50;26.10
1381;DHT22;684;48.342;10.096;2024-01-06T05:42:42;6.50;26.10
1381;DHT22;684;48.342;10.096;2024-01-06T05:45:10;6.50;26.20
1381;DHT22;684;48.342;10.096;2024-01-06T05:47:38;6.50;26.20
1381;DHT22;684;48.342;10.096;2024-01-06T05:50:07;6.50;26.30
1381;DHT22;684;48.342;10.096;2024-01-06T05:52:34;6.50;26.30
1381;DHT22;684;48.342;10.096;2024-01-06T05:55:01;6.50;26.30
1381;DHT22;684;48.342;10.096;2024-01-06T05:57:28;6.50;26.20
1381;DHT22;684;48.342;10.096;2024-01-06T05:59:54;6.50;26.10
1381;DHT22;684;48.342;10.096;2024-01-06T06:02:21;6.50;26.10
1381;DHT22;684;48.342;10.096;2024-01-06T06:04:48;6.50;26.10
1381;DHT22;684;48.342;10.096;2024-01-06T06:07:16;6.40;26.30
1381;DHT22;684;48.342;10.096;2024-01-06T06:09:43;6.40;26.40
1381;DHT22;684;48.342;10.096;2024-01-06T06:12:12;6.40;26.40
1381;DHT22;684;48.342;10.096;2024-01-06T06:14:39;6.50;26.30
1381;DHT22;684;48.342;10.096;2024-01-06T06:17:06;6.50;26.20
1381;DHT22;684;48.342;10.096;2024-01-06T06:19:32;6.50;26.20
1381;DHT22;684;48.342;10.096;2024-01-06T06:21:59;6.50;26.10
1381;DHT22;684;48.342;10.096;2024-01-06T06:24:27;6.50;26.20
1381;DHT22;684;48.342;10.096;2024-01-06T06:26:54;6.40;26.40
1381;DHT22;684;48.342;10.096;2024-01-06T06:29:20;6.40;26.40
1381;DHT22;684;48.342;10.096;2024-01-06T06:31:47;6.50;26.30
1381;DHT22;684;48.342;10.096;2024-01-06T06:34:14;6.50;26.40
1381;DHT22;684;48.342;10.096;2024-01-06T06:36:40;6.40;26.40
1381;DHT22;684;48.342;10.096;2024-01-06T06:39:07;6.40;26.60
1381;DHT22;684;48.342;10.096;2024-01-06T06:41:35;6.40;26.40
1381;DHT22;684;48.342;10.096;2024-01-06T06:44:02;6.40;26.50
1381;DHT22;684;48.342;10.096;2024-01-06T06:46:29;6.50;26.50
1381;DHT22;684;48.342;10.096;2024-01-06T06:48:57;6.40;26.50
1381;DHT22;684;48.342;10.096;2024-01-06T06:51:23;6.40;26.70
1381;DHT22;684;48.342;10.096;2024-01-06T06:53:52;6.40;26.70
1381;DHT22;684;48.342;10.096;2024-01-06T06:56:19;6.40;26.70
1381;DHT22;684;48.342;10.096;2024-01-06T06:58:47;6.40;26.70
1381;DHT22;684;48.342;10.096;2024-01-06T07:01:13;6.40;26.60
1381;DHT22;684;48.342;10.096;2024-01-06T07:03:40;6.40;26.80
1381;DHT22;684;48.342;10.096;2024-01-06T07:06:07;6.40;26.60
1381;DHT22;684;48.342;10.096;2024-01-06T07:08:34;6.40;26.60
1381;DHT22;684;48.342;10.096;2024-01-06T07:11:00;6.40;26.70
1381;DHT22;684;48.342;10.096;2024-01-06T07:13:27;6.30;26.80
1381;DHT22;684;48.342;10.096;2024-01-06T07:15:55;6.30;27.00
1381;DHT22;684;48.342;10.096;2024-01-06T07:18:22;6.30;27.10
1381;DHT22;684;48.342;10.096;2024-01-06T07:20:50;6.20;27.10
1381;DHT22;684;48.342;10.096;2024-01-06T07:23:17;6.30;27.00
1381;DHT22;684;48.342;10.096;2024-01-06T07:25:43;6.30;27.00
1381;DHT22;684;48.342;10.096;2024-01-06T07:28:10;6.30;26.90
1381;DHT22;684;48.342;10.096;2024-01-06T07:30:37;6.20;27.10
1381;DHT22;684;48.342;10.096;2024-01-06T07:33:05;6.20;27.40
1381;DHT22;684;48.342;10.096;2024-01-06T07:35:32;6.20;27.30
1381;DHT22;684;48.342;10.096;2024-01-06T07:37:59;6.20;27.50
1381;DHT22;684;48.342;10.096;2024-01-06T07:40:25;6.20;27.50
1381;DHT22;684;48.342;10.096;2024-01-06T07:42:52;6.20;27.40
1381;DHT22;684;48.342;10.096;2024-01-06T07:45:19;6.20;27.40
1381;DHT22;684;48.342;10.096;2024-01-06T07:47:45;6.20;27.50
1381;DHT22;684;48.342;10.096;2024-01-06T07:50:13;6.20;27.40
1381;DHT22;684;48.342;10.096;2024-01-06T07:52:40;6.20;27.60
1381;DHT22;684;48.342;10.096;2024-01-06T07:55:07;6.20;27.60
1381;DHT22;684;48.342;10.096;2024-01-06T07:57:34;6.20;27.40
1381;DHT22;684;48.342;10.096;2024-01-06T08:00:01;6.20;27.60
1381;DHT22;684;48.342;10.096;2024-01-06T08:02:28;6.20;27.60
1381;DHT22;684;48.342;10.096;2024-01-06T08:04:55;6.20;27.60
1381;DHT22;684;48.342;10.096;2024-01-06T08:07:25;6.20;27.80
1381;DHT22;684;48.342;10.096;2024-01-06T08:09:52;6.20;27.60
1381;DHT22;684;48.342;10.096;2024-01-06T08:12:18;6.20;27.60
1381;DHT22;684;48.342;10.096;2024-01-06T08:14:45;6.20;27.10
1381;DHT22;684;48.342;10.096;2024-01-06T08:17:12;6.20;27.40
1381;DHT22;684;48.342;10.096;2024-01-06T08:19:39;6.20;26.80
1381;DHT22;684;48.342;10.096;2024-01-06T08:22:07;6.20;26.50
1381;DHT22;684;48.342;10.096;2024-01-06T08:24:35;6.20;26.40
1381;DHT22;684;48.342;10.096;2024-01-06T08:27:02;6.20;25.90
1381;DHT22;684;48.342;10.096;2024-01-06T08:29:28;6.20;25.80
1381;DHT22;684;48.342;10.096;2024-01-06T08:31:55;6.30;25.30
1381;DHT22;684;48.342;10.096;2024-01-06T08:34:22;6.20;25.00
1381;DHT22;684;48.342;10.096;2024-01-06T08:36:49;6.30;25.10
1381;DHT22;684;48.342;10.096;2024-01-06T08:39:16;6.20;25.00
1381;DHT22;684;48.342;10.096;2024-01-06T08:41:44;6.20;25.20
1381;DHT22;684;48.342;10.096;2024-01-06T08:44:12;6.20;25.60
1381;DHT22;684;48.342;10.096;2024-01-06T08:46:38;6.20;25.50
1381;DHT22;684;48.342;10.096;2024-01-06T08:49:05;6.20;25.90
1381;DHT22;684;48.342;10.096;2024-01-06T08:51:32;6.20;26.10
1381;DHT22;684;48.342;10.096;2024-01-06T08:53:58;6.20;25.80
1381;DHT22;684;48.342;10.096;2024-01-06T08:56:26;6.20;25.40
1381;DHT22;684;48.342;10.096;2024-01-06T08:58:54;6.30;25.40
1381;DHT22;684;48.342;10.096;2024-01-06T09:01:22;6.30;25.40
1381;DHT22;684;48.342;10.096;2024-01-06T09:03:49;6.40;25.20
1381;DHT22;684;48.342;10.096;2024-01-06T09:06:16;6.40;25.20
1381;DHT22;684;48.342;10.096;2024-01-06T09:08:42;6.40;25.30
1381;DHT22;684;48.342;10.096;2024-01-06T09:11:09;6.30;25.60
1381;DHT22;684;48.342;10.096;2024-01-06T09:13:36;6.40;25.40
1381;DHT22;684;48.342;10.096;2024-01-06T09:16:04;6.40;25.40
1381;DHT22;684;48.342;10.096;2024-01-06T09:18:31;6.40;25.70
1381;DHT22;684;48.342;10.096;2024-01-06T09:20:58;6.40;25.70
1381;DHT22;684;48.342;10.096;2024-01-06T09:23:24;6.40;25.80
1381;DHT22;684;48.342;10.096;2024-01-06T09:25:51;6.40;25.90
1381;DHT22;684;48.342;10.096;2024-01-06T09:28:18;6.40;25.00
1381;DHT22;684;48.342;10.096;2024-01-06T09:30:46;6.50;25.00
1381;DHT22;684;48.342;10.096;2024-01-06T09:33:14;6.50;24.80
1381;DHT22;684;48.342;10.096;2024-01-06T09:35:43;6.50;25.00
1381;DHT22;684;48.342;10.096;2024-01-06T09:38:10;6.50;25.10
1381;DHT22;684;48.342;10.096;2024-01-06T09:40:41;6.50;24.90
1381;DHT22;684;48.342;10.096;2024-01-06T09:43:08;6.50;25.20
1381;DHT22;684;48.342;10.096;2024-01-06T09:45:36;6.50;25.30
1381;DHT22;684;48.342;10.096;2024-01-06T09:48:10;6.50;25.00
1381;DHT22;684;48.342;10.096;2024-01-06T09:50:39;6.50;25.20
1381;DHT22;684;48.342;10.096;2024-01-06T09:53:07;6.40;25.10
1381;DHT22;684;48.342;10.096;2024-01-06T09:55:36;6.40;25.30
1381;DHT22;684;48.342;10.096;2024-01-06T09:58:04;6.40;25.40
1381;DHT22;684;48.342;10.096;2024-01-06T10:00:31;6.50;25.70
1381;DHT22;684;48.342;10.096;2024-01-06T10:02:59;6.50;25.90
1381;DHT22;684;48.342;10.096;2024-01-06T10:05:25;6.60;25.90
1381;DHT22;684;48.342;10.096;2024-01-06T10:07:53;6.60;25.80
1381;DHT22;684;48.342;10.096;2024-01-06T10:10:22;6.70;25.70
1381;DHT22;684;48.342;10.096;2024-01-06T10:12:52;6.80;25.30
1381;DHT22;684;48.342;10.096;2024-01-06T10:15:20;6.80;25.30
1381;DHT22;684;48.342;10.096;2024-01-06T10:17:46;6.90;25.20
1381;DHT22;684;48.342;10.096;2024-01-06T10:20:13;6.90;25.00
1381;DHT22;684;48.342;10.096;2024-01-06T10:22:41;6.90;25.00
1381;DHT22;684;48.342;10.096;2024-01-06T10:25:10;6.90;25.10
1381;DHT22;684;48.342;10.096;2024-01-06T10:27:38;7.00;25.00
1381;DHT22;684;48.342;10.096;2024-01-06T10:30:06;7.00;24.80
1381;DHT22;684;48.342;10.096;2024-01-06T10:32:33;7.10;24.30
1381;DHT22;684;48.342;10.096;2024-01-06T10:35:02;7.00;24.30
1381;DHT22;684;48.342;10.096;2024-01-06T10:37:29;7.10;24.30
1381;DHT22;684;48.342;10.096;2024-01-06T10:40:09;7.10;23.90
1381;DHT22;684;48.342;10.096;2024-01-06T10:42:37;7.10;24.00
1381;DHT22;684;48.342;10.096;2024-01-06T10:45:06;7.10;23.90
1381;DHT22;684;48.342;10.096;2024-01-06T10:47:35;7.10;23.90
1381;DHT22;684;48.342;10.096;2024-01-06T10:50:02;7.10;23.90
1381;DHT22;684;48.342;10.096;2024-01-06T10:52:29;7.20;23.80
1381;DHT22;684;48.342;10.096;2024-01-06T10:54:57;7.20;23.80
1381;DHT22;684;48.342;10.096;2024-01-06T10:57:26;7.20;23.60
1381;DHT22;684;48.342;10.096;2024-01-06T10:59:53;7.20;23.70
1381;DHT22;684;48.342;10.096;2024-01-06T11:02:21;7.20;23.20
1381;DHT22;684;48.342;10.096;2024-01-06T11:04:49;7.20;23.00
1381;DHT22;684;48.342;10.096;2024-01-06T11:07:17;7.20;23.10
1381;DHT22;684;48.342;10.096;2024-01-06T11:09:48;7.20;23.30
1381;DHT22;684;48.342;10.096;2024-01-06T11:12:17;7.20;23.50
1381;DHT22;684;48.342;10.096;2024-01-06T11:14:45;7.20;23.60
1381;DHT22;684;48.342;10.096;2024-01-06T11:17:12;7.20;23.70
1381;DHT22;684;48.342;10.096;2024-01-06T11:19:43;7.20;23.70
1381;DHT22;684;48.342;10.096;2024-01-06T11:22:26;7.20;23.80
1381;DHT22;684;48.342;10.096;2024-01-06T11:24:54;7.20;23.90
1381;DHT22;684;48.342;10.096;2024-01-06T11:27:23;7.20;23.90
1381;DHT22;684;48.342;10.096;2024-01-06T11:29:54;7.20;23.90
1381;DHT22;684;48.342;10.096;2024-01-06T11:32:28;7.10;23.80
1381;DHT22;684;48.342;10.096;2024-01-06T11:35:05;7.20;23.80
1381;DHT22;684;48.342;10.096;2024-01-06T11:37:36;7.20;23.60
1381;DHT22;684;48.342;10.096;2024-01-06T11:40:07;7.20;23.60
1381;DHT22;684;48.342;10.096;2024-01-06T11:42:34;7.30;23.50
1381;DHT22;684;48.342;10.096;2024-01-06T11:45:04;7.30;23.40
1381;DHT22;684;48.342;10.096;2024-01-06T11:47:32;7.30;23.60
1381;DHT22;684;48.342;10.096;2024-01-06T11:50:00;7.20;23.50
1381;DHT22;684;48.342;10.096;2024-01-06T11:52:30;7.20;23.60
1381;DHT22;684;48.342;10.096;2024-01-06T11:54:57;7.20;23.60
1381;DHT22;684;48.342;10.096;2024-01-06T11:57:25;7.30;23.70
1381;DHT22;684;48.342;10.096;2024-01-06T11:59:51;7.30;23.60
1381;DHT22;684;48.342;10.096;2024-01-06T12:02:20;7.30;23.70
1381;DHT22;684;48.342;10.096;2024-01-06T12:04:48;7.30;23.70
1381;DHT22;684;48.342;10.096;2024-01-06T12:07:16;7.30;23.60
1381;DHT22;684;48.342;10.096;2024-01-06T12:09:43;7.30;23.60
1381;DHT22;684;48.342;10.096;2024-01-06T12:12:10;7.30;23.60
1381;DHT22;684;48.342;10.096;2024-01-06T12:14:40;7.30;23.60
1381;DHT22;684;48.342;10.096;2024-01-06T12:17:07;7.30;23.50
1381;DHT22;684;48.342;10.096;2024-01-06T12:19:36;7.30;23.60
1381;DHT22;684;48.342;10.096;2024-01-06T12:22:03;7.40;23.40
1381;DHT22;684;48.342;10.096;2024-01-06T12:24:30;7.40;23.50
1381;DHT22;684;48.342;10.096;2024-01-06T12:26:58;7.40;23.50
1381;DHT22;684;48.342;10.096;2024-01-06T12:29:26;7.40;23.50
1381;DHT22;684;48.342;10.096;2024-01-06T12:31:54;7.40;23.40
1381;DHT22;684;48.342;10.096;2024-01-06T12:34:21;7.40;23.20
1381;DHT22;684;48.342;10.096;2024-01-06T12:36:52;7.50;23.10
1381;DHT22;684;48.342;10.096;2024-01-06T12:39:20;7.50;23.10
1381;DHT22;684;48.342;10.096;2024-01-06T12:41:49;7.50;23.00
1381;DHT22;684;48.342;10.096;2024-01-06T12:44:16;7.40;22.90
1381;DHT22;684;48.342;10.096;2024-01-06T12:46:43;7.50;23.00
1381;DHT22;684;48.342;10.096;2024-01-06T12:49:10;7.50;23.00
1381;DHT22;684;48.342;10.096;2024-01-06T12:51:36;7.50;23.00
1381;DHT22;684;48.342;10.096;2024-01-06T12:54:05;7.50;23.10
1381;DHT22;684;48.342;10.096;2024-01-06T12:56:31;7.50;23.10
1381;DHT22;684;48.342;10.096;2024-01-06T12:58:58;7.40;23.20
1381;DHT22;684;48.342;10.096;2024-01-06T13:01:25;7.50;23.30
1381;DHT22;684;48.342;10.096;2024-01-06T13:03:52;7.50;23.30
1381;DHT22;684;48.342;10.096;2024-01-06T13:06:19;7.50;23.30
1381;DHT22;684;48.342;10.096;2024-01-06T13:08:48;7.50;23.20
1381;DHT22;684;48.342;10.096;2024-01-06T13:11:16;7.50;23.20
1381;DHT22;684;48.342;10.096;2024-01-06T13:13:43;7.50;23.10
1381;DHT22;684;48.342;10.096;2024-01-06T13:16:10;7.40;22.90
1381;DHT22;684;48.342;10.096;2024-01-06T13:18:37;7.50;22.90
1381;DHT22;684;48.342;10.096;2024-01-06T13:21:04;7.50;22.80
1381;DHT22;684;48.342;10.096;2024-01-06T13:23:31;7.50;22.90
1381;DHT22;684;48.342;10.096;2024-01-06T13:25:58;7.40;22.80
1381;DHT22;684;48.342;10.096;2024-01-06T13:28:26;7.40;22.70
1381;DHT22;684;48.342;10.096;2024-01-06T13:30:53;7.40;22.80
1381;DHT22;684;48.342;10.096;2024-01-06T13:33:19;7.40;22.70
1381;DHT22;684;48.342;10.096;2024-01-06T13:35:46;7.40;22.50
1381;DHT22;684;48.342;10.096;2024-01-06T13:38:13;7.40;22.30
1381;DHT22;684;48.342;10.096;2024-01-06T13:40:41;7.40;22.70
1381;DHT22;684;48.342;10.096;2024-01-06T13:43:08;7.40;22.10
1381;DHT22;684;48.342;10.096;2024-01-06T13:45:42;7.50;22.10
1381;DHT22;684;48.342;10.096;2024-01-06T13:48:10;7.40;21.80
1381;DHT22;684;48.342;10.096;2024-01-06T13:50:36;7.40;21.90
1381;DHT22;684;48.342;10.096;2024-01-06T13:53:03;7.40;22.00
1381;DHT22;684;48.342;10.096;2024-01-06T13:55:31;7.40;22.00
1381;DHT22;684;48.342;10.096;2024-01-06T13:57:58;7.40;22.00
1381;DHT22;684;48.342;10.096;2024-01-06T14:00:25;7.40;22.00
1381;DHT22;684;48.342;10.096;2024-01-06T14:02:54;7.40;22.10
1381;DHT22;684;48.342;10.096;2024-01-06T14:05:21;7.30;22.20
1381;DHT22;684;48.342;10.096;2024-01-06T14:07:48;7.40;22.20
1381;DHT22;684;48.342;10.096;2024-01-06T14:10:16;7.30;22.20
1381;DHT22;684;48.342;10.096;2024-01-06T14:12:42;7.30;22.10
1381;DHT22;684;48.342;10.096;2024-01-06T14:15:10;7.30;22.00
1381;DHT22;684;48.342;10.096;2024-01-06T14:17:37;7.30;21.80
1381;DHT22;684;48.342;10.096;2024-01-06T14:20:07;7.30;21.80
1381;DHT22;684;48.342;10.096;2024-01-06T14:22:35;7.30;21.80
1381;DHT22;684;48.342;10.096;2024-01-06T14:25:03;7.30;21.80
1381;DHT22;684;48.342;10.096;2024-01-06T14:27:29;7.20;21.90
1381;DHT22;684;48.342;10.096;2024-01-06T14:29:56;7.20;21.90
1381;DHT22;684;48.342;10.096;2024-01-06T14:32:23;7.20;22.00
1381;DHT22;684;48.342;10.096;2024-01-06T14:34:49;7.20;22.00
1381;DHT22;684;48.342;10.096;2024-01-06T14:37:18;7.20;21.90
1381;DHT22;684;48.342;10.096;2024-01-06T14:39:45;7.20;22.00
1381;DHT22;684;48.342;10.096;2024-01-06T14:42:12;7.10;22.10
1381;DHT22;684;48.342;10.096;2024-01-06T14:44:38;7.10;22.10
1381;DHT22;684;48.342;10.096;2024-01-06T14:47:06;7.10;22.10
1381;DHT22;684;48.342;10.096;2024-01-06T14:49:33;7.10;22.10
1381;DHT22;684;48.342;10.096;2024-01-06T14:52:00;7.10;22.20
1381;DHT22;684;48.342;10.096;2024-01-06T14:54:29;7.10;22.30
1381;DHT22;684;48.342;10.096;2024-01-06T14:56:58;7.10;22.40
1381;DHT22;684;48.342;10.096;2024-01-06T14:59:25;7.00;22.40
1381;DHT22;684;48.342;10.096;2024-01-06T15:01:52;7.00;22.40
1381;DHT22;684;48.342;10.096;2024-01-06T15:04:18;7.00;22.50
1381;DHT22;684;48.342;10.096;2024-01-06T15:06:45;7.00;22.60
1381;DHT22;684;48.342;10.096;2024-01-06T15:09:12;7.00;22.60
1381;DHT22;684;48.342;10.096;2024-01-06T15:11:40;7.00;22.60
1381;DHT22;684;48.342;10.096;2024-01-06T15:14:07;7.00;22.70
1381;DHT22;684;48.342;10.096;2024-01-06T15:16:34;7.00;22.70
1381;DHT22;684;48.342;10.096;2024-01-06T15:19:02;7.00;22.70
1381;DHT22;684;48.342;10.096;2024-01-06T15:21:29;7.00;22.70
1381;DHT22;684;48.342;10.096;2024-01-06T15:23:58;7.00;22.70
1381;DHT22;684;48.342;10.096;2024-01-06T15:26:25;7.00;22.70
1381;DHT22;684;48.342;10.096;2024-01-06T15:28:53;7.00;22.60
1381;DHT22;684;48.342;10.096;2024-01-06T15:31:21;7.00;22.60
1381;DHT22;684;48.342;10.096;2024-01-06T15:33:48;6.90;22.60
1381;DHT22;684;48.342;10.096;2024-01-06T15:36:15;6.90;22.60
1381;DHT22;684;48.342;10.096;2024-01-06T15:38:42;6.90;22.70
1381;DHT22;684;48.342;10.096;2024-01-06T15:41:09;6.90;22.90
1381;DHT22;684;48.342;10.096;2024-01-06T15:43:35;6.90;22.80
1381;DHT22;684;48.342;10.096;2024-01-06T15:46:04;6.90;23.00
1381;DHT22;684;48.342;10.096;2024-01-06T15:48:31;6.90;23.20
1381;DHT22;684;48.342;10.096;2024-01-06T15:50:58;6.80;23.30
1381;DHT22;684;48.342;10.096;2024-01-06T15:53:25;6.80;23.40
1381;DHT22;684;48.342;10.096;2024-01-06T15:55:51;6.80;23.40
1381;DHT22;684;48.342;10.096;2024-01-06T15:58:18;6.80;23.40
1381;DHT22;684;48.342;10.096;2024-01-06T16:00:45;6.80;23.50
1381;DHT22;684;48.342;10.096;2024-01-06T16:03:13;6.80;23.70
1381;DHT22;684;48.342;10.096;2024-01-06T16:05:40;6.80;24.40
1381;DHT22;684;48.342;10.096;2024-01-06T16:08:07;6.80;23.80
1381;DHT22;684;48.342;10.096;2024-01-06T16:10:34;6.80;23.60
1381;DHT22;684;48.342;10.096;2024-01-06T16:13:01;6.70;23.70
1381;DHT22;684;48.342;10.096;2024-01-06T16:15:28;6.70;23.70
1381;DHT22;684;48.342;10.096;2024-01-06T16:17:55;6.70;23.80